Time;durP1;ratioP1;P1;durP2;ratioP2;P2;SDS_P1;SDS_P2;PMS_P1;PMS_P2;Temp;Humidity;BMP_temperature;BMP_pressure;BME280_temperature;BME280_humidity;BME280_pressure;Samples;Min_cycle;Max_cycle;Signal;HPM_P1;HPM_P2
2021/10/25 00:00:33;;;;;;;5.00;2.23;;;;;;;7.43;60.42;100371.97;5068152;23;20296;-77
2021/10/25 00:04:02;;;;;;;5.83;2.47;;;;;;;7.30;60.25;100353.09;5116191;22;20221;-77
2021/10/25 00:06:59;;;;;;;4.40;2.03;;;;;;;7.48;61.15;100373.09;5092256;23;20229;-78
2021/10/25 00:09:51;;;;;;;5.30;2.57;;;;;;;7.35;60.55;100372.88;5119241;22;20228;-78
2021/10/25 00:12:41;;;;;;;4.80;2.17;;;;;;;7.24;61.25;100367.97;5102342;22;20236;-78
2021/10/25 00:15:19;;;;;;;5.37;2.33;;;;;;;7.00;61.71;100345.03;5067910;22;20225;-79
2021/10/25 00:18:08;;;;;;;5.47;2.23;;;;;;;7.14;61.97;100362.06;5083761;23;20212;-77
2021/10/25 00:21:14;;;;;;;4.43;2.50;;;;;;;7.11;61.57;100357.09;5183737;22;20209;-77
2021/10/25 00:23:56;;;;;;;4.00;2.60;;;;;;;7.23;62.12;100373.50;5087705;23;20231;-77
2021/10/25 00:26:34;;;;;;;4.70;2.43;;;;;;;7.37;61.65;100367.38;5070165;23;20258;-78
2021/10/25 00:30:00;;;;;;;5.17;2.57;;;;;;;7.22;61.19;100355.84;5077616;22;20260;-77
2021/10/25 00:32:54;;;;;;;5.40;2.20;;;;;;;7.41;61.50;100374.00;5085447;22;20221;-77
2021/10/25 00:35:58;;;;;;;4.40;2.40;;;;;;;7.37;60.99;100362.06;5087237;23;20240;-78
2021/10/25 00:38:48;;;;;;;4.00;2.40;;;;;;;7.44;60.26;100341.63;5057309;22;20205;-78
2021/10/25 00:41:33;;;;;;;6.00;2.43;;;;;;;7.44;60.79;100347.81;5096204;23;20229;-77
2021/10/25 00:44:00;;;;;;;3.70;2.33;;;;;;;7.46;60.49;100351.13;5062906;23;21107;-77
2021/10/25 00:47:00;;;;;;;3.43;2.37;;;;;;;7.58;60.12;100346.16;5063982;23;20219;-77
2021/10/25 00:49:49;;;;;;;3.30;2.50;;;;;;;7.62;60.22;100342.13;5151009;22;20240;-77
2021/10/25 00:52:39;;;;;;;3.50;2.03;;;;;;;7.45;59.72;100329.97;5088202;22;20222;-77
2021/10/25 00:55:32;;;;;;;3.60;2.20;;;;;;;7.81;59.42;100346.91;5083508;23;20233;-78
2021/10/25 00:58:16;;;;;;;3.20;2.30;;;;;;;7.94;58.92;100349.75;5050124;23;20205;-77
2021/10/25 01:00:55;;;;;;;5.63;2.37;;;;;;;7.73;59.27;100347.00;5092862;22;20232;-79
2021/10/25 01:03:46;;;;;;;4.53;2.60;;;;;;;7.94;58.99;100343.56;5090696;23;20204;-78
2021/10/25 01:06:29;;;;;;;3.40;2.10;;;;;;;7.97;58.73;100333.38;5088624;23;20211;-78
2021/10/25 01:09:22;;;;;;;3.77;2.00;;;;;;;7.93;58.20;100342.75;5083489;23;20244;-77
2021/10/25 01:13:23;;;;;;;5.60;2.50;;;;;;;8.10;57.81;100331.88;5090697;23;20217;-79
2021/10/25 01:16:31;;;;;;;3.10;2.27;;;;;;;8.06;58.28;100325.28;5058921;23;20293;-78
2021/10/25 01:19:05;;;;;;;4.03;2.20;;;;;;;8.04;58.14;100319.28;5094701;28;20239;-77
2021/10/25 01:21:36;;;;;;;4.83;2.20;;;;;;;8.07;57.73;100321.59;5087447;23;20244;-78
2021/10/25 01:24:43;;;;;;;4.07;2.10;;;;;;;8.10;57.56;100316.69;5044092;23;20202;-77
2021/10/25 01:27:44;;;;;;;2.73;2.20;;;;;;;8.11;57.42;100328.22;5061229;23;20217;-78
2021/10/25 01:30:38;;;;;;;4.10;2.00;;;;;;;8.11;57.53;100312.19;5076312;28;20193;-78
2021/10/25 01:33:30;;;;;;;4.00;2.10;;;;;;;7.85;57.21;100270.81;5084774;23;20510;-79
2021/10/25 01:36:43;;;;;;;3.03;2.20;;;;;;;8.08;56.81;100286.69;5094282;23;20215;-78
2021/10/25 01:39:22;;;;;;;4.30;2.20;;;;;;;8.06;57.63;100287.91;5096295;23;20216;-77
2021/10/25 01:42:53;;;;;;;3.30;2.10;;;;;;;8.23;56.24;100295.50;5107149;22;20232;-78
2021/10/25 01:45:36;;;;;;;5.30;2.17;;;;;;;8.15;56.82;100292.13;5166680;23;20296;-77
2021/10/25 01:48:33;;;;;;;4.00;2.20;;;;;;;8.28;56.82;100295.75;5109234;23;20246;-78
2021/10/25 01:51:26;;;;;;;3.80;2.03;;;;;;;8.33;56.39;100300.56;5091056;23;20216;-78
2021/10/25 01:54:10;;;;;;;4.37;1.87;;;;;;;8.29;55.93;100286.78;5096883;23;21359;-78
2021/10/25 01:57:31;;;;;;;4.90;2.03;;;;;;;8.11;56.27;100270.31;4995251;28;20206;-78
2021/10/25 02:00:37;;;;;;;3.93;2.10;;;;;;;8.22;56.06;100290.34;5026014;22;20293;-78
2021/10/25 02:03:25;;;;;;;3.87;1.80;;;;;;;8.23;56.16;100289.31;5051189;22;20220;-77
2021/10/25 02:06:22;;;;;;;3.37;1.93;;;;;;;8.25;55.70;100282.81;5100201;22;20268;-77
2021/10/25 02:09:44;;;;;;;2.67;2.00;;;;;;;8.26;55.95;100273.75;5093843;23;20236;-78
2021/10/25 02:12:20;;;;;;;3.90;1.97;;;;;;;8.18;55.53;100260.53;5154838;22;20226;-77
2021/10/25 02:15:20;;;;;;;4.80;2.00;;;;;;;8.32;54.97;100272.22;5078293;22;20221;-77
2021/10/25 02:18:38;;;;;;;3.40;1.87;;;;;;;8.25;54.88;100272.13;5089734;23;20222;-77
2021/10/25 02:22:00;;;;;;;2.67;1.97;;;;;;;8.16;55.30;100265.25;5054315;23;20548;-77
2021/10/25 02:25:21;;;;;;;7.13;2.23;;;;;;;8.11;55.00;100248.97;3777420;23;20224;-78
2021/10/25 02:27:57;;;;;;;2.87;1.97;;;;;;;8.17;55.05;100258.88;5095108;28;20228;-77
2021/10/25 02:30:39;;;;;;;3.10;2.00;;;;;;;8.18;55.39;100252.53;5096440;28;20197;-77
2021/10/25 02:36:25;;;;;;;3.90;1.93;;;;;;;8.19;54.30;100248.84;5017039;23;20253;-77
2021/10/25 02:39:14;;;;;;;3.87;1.90;;;;;;;8.26;53.73;100263.06;5085091;22;20233;-77
2021/10/25 02:42:24;;;;;;;2.30;1.80;;;;;;;8.21;54.22;100254.00;5132416;23;20253;-77
2021/10/25 02:45:50;;;;;;;5.00;2.20;;;;;;;8.25;53.80;100264.13;4990339;23;20225;-77
2021/10/25 02:49:06;;;;;;;5.87;2.13;;;;;;;8.27;53.95;100256.72;802730;23;20414;-77
2021/10/25 02:51:44;;;;;;;3.20;2.00;;;;;;;8.24;53.50;100257.13;5243625;23;20216;-77
2021/10/25 02:54:21;;;;;;;3.57;1.90;;;;;;;8.16;54.05;100256.41;5093891;23;20213;-78
2021/10/25 02:57:14;;;;;;;3.53;1.90;;;;;;;8.05;53.92;100236.38;5091323;22;20236;-77
2021/10/25 03:00:43;;;;;;;2.30;1.67;;;;;;;8.11;53.88;100258.81;5082227;28;20165;-79
2021/10/25 03:03:34;;;;;;;3.53;1.90;;;;;;;8.03;53.61;100243.72;5013215;23;20221;-78
2021/10/25 03:06:29;;;;;;;3.53;1.87;;;;;;;8.04;54.02;100258.72;5071647;23;20213;-78
2021/10/25 03:09:49;;;;;;;3.63;2.57;;;;;;;8.08;53.55;100262.66;5087326;23;20209;-77
2021/10/25 03:12:36;;;;;;;4.50;2.10;;;;;;;8.14;53.65;100261.94;5088747;23;20327;-77
2021/10/25 03:15:17;;;;;;;5.93;2.33;;;;;;;8.00;53.74;100238.78;5088208;23;20213;-77
2021/10/25 03:18:34;;;;;;;4.13;1.93;;;;;;;8.08;53.76;100264.50;5087850;23;20212;-78
2021/10/25 03:21:38;;;;;;;4.70;2.17;;;;;;;8.11;53.70;100266.81;5140837;22;20292;-77
2021/10/25 03:24:20;;;;;;;3.37;1.70;;;;;;;8.09;53.57;100255.50;5081589;28;20189;-77
2021/10/25 03:26:50;;;;;;;3.03;1.70;;;;;;;8.19;53.65;100264.84;5102584;22;20224;-78
2021/10/25 03:29:58;;;;;;;2.90;1.80;;;;;;;8.16;52.95;100257.25;5187862;22;20243;-78
2021/10/25 03:33:12;;;;;;;4.80;2.37;;;;;;;8.14;53.06;100261.09;5100552;22;20221;-78
2021/10/25 03:36:17;;;;;;;3.60;2.40;;;;;;;8.02;53.56;100255.44;5105254;22;20205;-78
2021/10/25 03:39:41;;;;;;;4.27;2.00;;;;;;;8.09;53.54;100263.50;5110933;22;20232;-77
2021/10/25 03:42:57;;;;;;;3.17;2.20;;;;;;;8.16;53.25;100251.06;5088208;23;20215;-77
2021/10/25 03:45:51;;;;;;;4.17;2.20;;;;;;;8.06;53.49;100256.72;5094522;23;20221;31
2021/10/25 03:48:45;;;;;;;3.77;2.00;;;;;;;8.06;53.56;100254.03;5017166;28;20215;-78
2021/10/25 03:51:54;;;;;;;3.90;2.30;;;;;;;8.06;53.36;100251.38;5010846;28;20246;-79
2021/10/25 03:55:12;;;;;;;4.43;2.10;;;;;;;7.93;54.01;100246.69;5038745;28;20246;-77
2021/10/25 04:25:49;;;;;;;4.93;2.50;;;;;;;7.68;54.73;100239.22;5093197;22;20226;-78
2021/10/25 04:28:32;;;;;;;5.20;2.30;;;;;;;7.66;55.15;100242.06;5059466;28;20174;-77
2021/10/25 04:31:58;;;;;;;3.30;2.30;;;;;;;7.53;55.29;100239.22;5091022;22;20297;-78
2021/10/25 04:35:23;;;;;;;3.30;2.40;;;;;;;7.54;55.45;100243.53;5084528;22;20662;-77
2021/10/25 04:38:45;;;;;;;2.70;2.23;;;;;;;7.45;55.17;100239.31;5061551;22;20233;-78
2021/10/25 04:41:57;;;;;;;3.17;2.57;;;;;;;7.30;55.58;100234.00;3277636;23;20242;-78
2021/10/25 04:45:12;;;;;;;3.50;2.30;;;;;;;7.39;55.64;100253.38;5072258;23;20229;-78
2021/10/25 04:48:07;;;;;;;5.27;2.40;;;;;;;7.21;55.95;100251.09;5248085;22;21148;-78
2021/10/25 04:51:22;;;;;;;4.70;2.27;;;;;;;7.21;56.22;100244.91;5046211;22;20225;-78
2021/10/25 04:54:39;;;;;;;6.17;2.53;;;;;;;7.05;56.27;100237.91;5100501;22;20247;-77
2021/10/25 04:57:36;;;;;;;5.60;2.63;;;;;;;7.07;56.77;100249.22;5096521;22;20273;-78
2021/10/25 05:00:35;;;;;;;4.27;2.43;;;;;;;7.09;56.77;100252.56;5081804;28;20264;-79
2021/10/25 05:03:16;;;;;;;4.57;2.90;;;;;;;7.05;56.69;100241.41;5138693;23;20229;-77
2021/10/25 05:06:05;;;;;;;3.27;2.37;;;;;;;6.79;57.41;100217.03;5057711;23;20257;-78
2021/10/25 05:09:19;;;;;;;3.70;2.57;;;;;;;6.86;58.03;100241.13;5078962;22;20209;-79
2021/10/25 05:12:55;;;;;;;3.73;2.80;;;;;;;6.64;58.42;100254.28;5032492;22;20241;-78
2021/10/25 05:16:01;;;;;;;7.23;3.03;;;;;;;6.56;58.94;100240.22;5052049;23;20230;-78
2021/10/25 05:19:59;;;;;;;5.17;2.70;;;;;;;6.61;59.14;100240.50;5076523;22;20663;-78
2021/10/25 05:23:13;;;;;;;4.57;2.60;;;;;;;6.68;58.80;100246.75;5106008;22;20243;-78
2021/10/25 05:26:21;;;;;;;4.13;2.97;;;;;;;6.32;58.82;100211.13;5078911;23;20221;-78
2021/10/25 05:32:35;;;;;;;4.33;2.70;;;;;;;6.18;59.63;100204.72;5072217;23;20232;-79
2021/10/25 05:35:54;;;;;;;5.67;2.80;;;;;;;6.49;59.88;100242.75;5048306;23;20218;-78
2021/10/25 05:39:01;;;;;;;5.93;3.10;;;;;;;6.36;60.00;100250.50;5173907;23;20216;-77
2021/10/25 05:42:12;;;;;;;5.23;2.87;;;;;;;6.32;60.10;100248.38;5095064;23;20276;-77
2021/10/25 05:45:14;;;;;;;3.50;2.60;;;;;;;6.33;60.19;100253.53;5061637;23;20305;-79
2021/10/25 05:48:20;;;;;;;6.37;2.70;;;;;;;6.32;60.20;100249.19;4517785;23;15066407;-79
2021/10/25 05:51:32;;;;;;;5.00;2.50;;;;;;;6.26;59.90;100231.28;5082495;22;20212;-78
2021/10/25 05:55:23;;;;;;;4.03;2.83;;;;;;;6.47;60.15;100259.91;5191934;22;20220;-79
2021/10/25 05:58:26;;;;;;;6.47;2.60;;;;;;;6.43;60.10;100256.78;5167893;22;20216;-79
2021/10/25 06:01:24;;;;;;;3.33;2.50;;;;;;;6.51;59.92;100263.88;5101776;22;20252;-79
2021/10/25 06:04:34;;;;;;;4.83;2.90;;;;;;;6.61;59.16;100267.13;5251369;22;20227;-77
2021/10/25 06:08:14;;;;;;;4.73;2.77;;;;;;;6.74;59.32;100267.34;5103013;23;20203;-78
2021/10/25 06:10:55;;;;;;;5.23;3.03;;;;;;;6.80;58.98;100273.78;5095412;22;20235;-78
2021/10/25 06:14:12;;;;;;;3.67;2.40;;;;;;;7.05;57.11;100262.72;5162010;22;20223;-76
2021/10/25 06:20:37;;;;;;;6.47;2.43;;;;;;;7.35;56.14;100276.91;5090994;22;20229;-79
2021/10/25 06:24:11;;;;;;;2.93;2.13;;;;;;;7.47;57.12;100272.78;5067679;23;20288;-79
2021/10/25 06:27:41;;;;;;;3.00;2.37;;;;;;;7.56;56.54;100252.16;5068512;22;20209;-78
2021/10/25 06:31:22;;;;;;;4.73;2.30;;;;;;;7.83;55.60;100264.03;5099060;23;20230;-78
2021/10/25 06:34:52;;;;;;;3.43;2.30;;;;;;;7.96;55.39;100277.53;5074204;23;20234;-79
2021/10/25 06:38:56;;;;;;;4.07;2.40;;;;;;;8.07;55.18;100284.22;5048513;23;20216;-78
2021/10/25 06:42:39;;;;;;;6.67;2.73;;;;;;;8.24;54.59;100277.63;5062484;23;20221;-79
2021/10/25 06:45:19;;;;;;;4.70;2.57;;;;;;;8.29;54.71;100275.22;4959023;29;20236;-79
2021/10/25 06:48:12;;;;;;;7.83;2.83;;;;;;;8.28;54.43;100279.75;5033207;23;20252;-77
2021/10/25 06:51:11;;;;;;;6.20;2.80;;;;;;;8.31;54.42;100265.22;5027290;28;20187;-79
2021/10/25 06:54:24;;;;;;;3.93;2.30;;;;;;;8.45;54.19;100287.53;5090801;22;20221;-77
2021/10/25 06:57:19;;;;;;;5.07;2.83;;;;;;;8.33;54.05;100248.00;5056375;23;20229;-78
2021/10/25 07:00:28;;;;;;;4.53;2.37;;;;;;;8.63;53.74;100280.72;5092578;22;20245;-79
2021/10/25 07:03:52;;;;;;;3.30;2.50;;;;;;;8.74;54.07;100287.41;5078992;28;20201;-78
2021/10/25 07:07:07;;;;;;;4.53;2.47;;;;;;;8.78;54.13;100292.19;5094455;22;20229;31
2021/10/25 07:09:58;;;;;;;4.17;2.40;;;;;;;8.72;53.89;100282.28;4978649;28;20267;-79
2021/10/25 07:13:26;;;;;;;3.73;2.77;;;;;;;8.77;53.52;100287.84;5067770;23;20232;-78
2021/10/25 07:16:28;;;;;;;6.27;2.80;;;;;;;8.65;53.38;100280.56;5153817;22;20229;-79
2021/10/25 08:00:20;;;;;;;3.73;2.53;;;;;;;10.35;48.33;100304.91;5065725;22;20171;-79
2021/10/25 08:09:59;;;;;;;4.63;2.27;;;;;;;10.62;48.35;100311.13;5032969;28;20317;-82
2021/10/25 08:12:53;;;;;;;4.10;2.70;;;;;;;10.82;48.04;100303.97;5071795;22;20240;-78
2021/10/25 08:19:52;;;;;;;3.07;2.47;;;;;;;11.15;47.08;100305.84;5052492;22;20204;-81
2021/10/25 08:23:19;;;;;;;3.30;2.50;;;;;;;11.24;46.96;100308.09;5176004;22;20224;-81
2021/10/25 08:26:53;;;;;;;4.60;2.53;;;;;;;11.41;46.72;100303.13;5091344;23;20228;-81
2021/10/25 08:30:12;;;;;;;5.17;2.20;;;;;;;11.51;46.29;100302.69;5090197;23;20237;-80
2021/10/25 08:40:07;;;;;;;4.43;2.37;;;;;;;11.79;45.36;100295.22;4977512;28;20189;-81
2021/10/25 08:43:54;;;;;;;4.17;2.33;;;;;;;12.16;45.30;100323.19;4980559;28;20236;-81
2021/10/25 08:46:59;;;;;;;5.43;2.63;;;;;;;12.10;45.22;100294.47;5204987;23;20218;-80
2021/10/25 08:50:54;;;;;;;4.33;3.03;;;;;;;12.17;44.63;100276.47;5130348;23;20202;-81
2021/10/25 08:54:17;;;;;;;5.53;2.23;;;;;;;12.21;43.72;100286.59;5078264;22;20249;-80
2021/10/25 08:57:35;;;;;;;4.63;2.40;;;;;;;12.59;43.85;100321.53;5062594;23;20201;-80
2021/10/25 09:00:43;;;;;;;6.30;2.90;;;;;;;12.57;44.17;100312.84;5074252;28;20221;-82
2021/10/25 09:03:30;;;;;;;4.00;2.23;;;;;;;12.43;43.93;100287.06;5054079;28;20217;-82
2021/10/25 09:06:14;;;;;;;3.37;2.60;;;;;;;12.70;43.64;100303.84;5058105;28;20185;-81
2021/10/25 09:09:07;;;;;;;7.67;2.77;;;;;;;12.74;43.48;100308.59;5054766;28;20237;-82
2021/10/25 09:15:00;;;;;;;3.90;2.60;;;;;;;12.56;43.27;100265.50;5013282;28;20219;-82
2021/10/25 09:17:43;;;;;;;7.57;2.87;;;;;;;12.68;43.75;100293.34;5015756;28;20214;-82
2021/10/25 09:20:33;;;;;;;4.47;2.50;;;;;;;12.88;42.84;100295.06;4990135;28;20250;-82
2021/10/25 09:23:18;;;;;;;4.63;2.80;;;;;;;12.93;43.14;100298.72;4997425;28;20187;-82
2021/10/25 09:26:04;;;;;;;3.87;2.40;;;;;;;12.96;43.01;100305.56;5015924;28;20219;-82
2021/10/25 09:29:03;;;;;;;3.83;2.30;;;;;;;12.83;42.75;100266.13;4998147;28;20230;-82
2021/10/25 09:32:04;;;;;;;3.00;2.30;;;;;;;12.93;42.74;100263.75;5265979;23;20312;-82
2021/10/25 09:35:28;;;;;;;3.70;2.47;;;;;;;13.17;42.07;100286.34;5092141;28;20228;-82
2021/10/25 09:45:41;;;;;;;3.17;2.40;;;;;;;13.40;41.27;100293.81;5089430;28;20231;-82
2021/10/25 09:52:12;;;;;;;4.80;2.47;;;;;;;13.51;40.94;100261.59;5089165;28;20228;-81
2021/10/25 09:55:13;;;;;;;3.57;2.60;;;;;;;13.40;40.26;100248.88;5082967;28;20216;-82
2021/10/25 10:03:58;;;;;;;4.20;2.50;;;;;;;13.65;39.60;100246.97;1429671;26;20252;-83
2021/10/25 10:07:42;;;;;;;4.47;2.43;;;;;;;13.97;39.30;100279.09;4956205;29;20245;-82
2021/10/25 10:10:32;;;;;;;4.07;2.30;;;;;;;13.76;38.86;100233.78;5011863;23;20218;-82
2021/10/25 10:13:17;;;;;;;4.50;2.17;;;;;;;14.06;38.44;100275.88;5016721;23;21241;-80
2021/10/25 10:16:27;;;;;;;4.00;2.20;;;;;;;14.10;37.86;100263.59;5123628;23;20226;-80
2021/10/25 10:19:24;;;;;;;3.67;2.30;;;;;;;14.04;37.56;100256.41;5122216;23;20230;-80
2021/10/25 10:22:52;;;;;;;4.03;2.20;;;;;;;14.20;37.91;100251.44;5064161;23;20224;-79
2021/10/25 10:26:18;;;;;;;3.20;2.50;;;;;;;14.38;37.61;100232.56;5062054;23;20233;-80
2021/10/25 10:29:22;;;;;;;3.63;2.20;;;;;;;14.38;37.32;100236.06;5136084;23;20274;-80
2021/10/25 10:32:44;;;;;;;4.33;2.27;;;;;;;14.34;36.48;100204.38;5058156;23;20240;-80
2021/10/25 10:35:50;;;;;;;4.27;2.30;;;;;;;14.43;36.22;100233.53;5057333;28;20214;-81
2021/10/25 10:38:59;;;;;;;3.97;2.20;;;;;;;14.50;36.40;100236.97;5064405;23;20232;-79
2021/10/25 10:42:07;;;;;;;3.37;2.30;;;;;;;14.40;35.85;100220.50;4168986;23;20290;-80
2021/10/25 10:45:13;;;;;;;4.27;2.00;;;;;;;14.64;36.09;100226.78;5043708;23;20245;-80
2021/10/25 10:47:57;;;;;;;3.67;2.07;;;;;;;14.60;34.99;100222.09;5167932;22;20229;-79
2021/10/25 10:54:19;;;;;;;2.43;1.70;;;;;;;14.88;35.20;100233.03;5061844;23;20293;-80
2021/10/25 10:57:07;;;;;;;4.87;2.50;;;;;;;14.94;34.65;100211.31;5053571;28;20230;-80
2021/10/25 11:00:48;;;;;;;5.07;2.07;;;;;;;14.98;34.37;100215.19;5073917;23;20217;-81
2021/10/25 11:03:28;;;;;;;3.87;2.10;;;;;;;14.97;34.22;100199.25;4974360;28;20215;-81
2021/10/25 11:06:17;;;;;;;4.00;2.40;;;;;;;15.08;34.40;100214.63;5043847;22;20211;-80
2021/10/25 11:09:41;;;;;;;6.20;1.90;;;;;;;15.10;34.51;100209.81;5153164;22;20338;-80
2021/10/25 11:12:47;;;;;;;4.53;2.20;;;;;;;15.11;34.02;100224.97;5075690;28;20287;-81
2021/10/25 11:15:34;;;;;;;5.13;2.37;;;;;;;15.20;34.32;100211.94;5049702;28;20221;-80
2021/10/25 11:18:10;;;;;;;4.53;2.13;;;;;;;15.14;34.13;100188.56;5158811;22;20221;-79
2021/10/25 11:20:36;;;;;;;2.77;2.20;;;;;;;15.24;33.41;100195.03;5039768;28;20235;-79
2021/10/25 11:23:06;;;;;;;2.67;1.70;;;;;;;15.39;33.33;100200.75;5023267;28;20300;-79
2021/10/25 11:25:44;;;;;;;3.83;2.00;;;;;;;15.48;33.59;100212.03;5025305;28;20245;-80
2021/10/25 11:28:15;;;;;;;3.77;2.60;;;;;;;15.51;33.33;100208.88;5025125;28;20583;-81
2021/10/25 11:31:02;;;;;;;5.57;2.63;;;;;;;15.62;32.99;100215.31;5038632;28;20218;-82
2021/10/25 11:37:22;;;;;;;3.23;2.07;;;;;;;15.63;32.73;100198.06;5629817;23;20223;-87
2021/10/25 11:40:23;;;;;;;4.33;2.10;;;;;;;15.70;32.47;100194.16;4958783;28;20300;-86
2021/10/25 11:42:53;;;;;;;4.30;2.30;;;;;;;15.66;33.23;100184.88;4961012;28;20532;-85
2021/10/25 11:45:24;;;;;;;4.07;2.20;;;;;;;15.60;33.45;100171.50;4967686;28;20230;-86
2021/10/25 11:47:52;;;;;;;2.90;2.17;;;;;;;15.68;32.92;100171.94;4968162;28;20210;-87
2021/10/25 11:50:29;;;;;;;4.47;2.60;;;;;;;15.76;33.32;100173.47;4958934;28;20320;-88
2021/10/25 11:53:06;;;;;;;6.43;2.60;;;;;;;15.68;32.99;100168.41;4983914;23;20231;-78
2021/10/25 11:56:13;;;;;;;4.40;2.33;;;;;;;15.73;33.80;100160.41;5001702;23;20240;-86
2021/10/25 11:58:42;;;;;;;4.33;2.40;;;;;;;15.84;33.04;100156.88;4980216;28;20224;-88
2021/10/25 12:01:13;;;;;;;4.13;1.97;;;;;;;15.76;32.59;100143.75;4981433;28;20541;-86
2021/10/25 12:03:45;;;;;;;2.90;2.33;;;;;;;15.81;32.66;100138.44;4962459;28;20642;-84
2021/10/25 12:07:02;;;;;;;4.07;2.13;;;;;;;15.72;32.64;100143.38;4980431;28;20229;-80
2021/10/25 12:10:31;;;;;;;4.40;2.23;;;;;;;15.79;32.09;100135.16;4995505;28;20293;-84
2021/10/25 12:13:11;;;;;;;6.07;2.00;;;;;;;15.81;31.75;100125.75;5004802;23;20228;-83
2021/10/25 12:16:14;;;;;;;4.23;2.20;;;;;;;15.81;32.94;100133.88;4985828;28;20220;-79
2021/10/25 12:18:57;;;;;;;3.17;1.90;;;;;;;15.81;32.67;100119.53;4985953;28;20221;-85
2021/10/25 12:22:02;;;;;;;4.70;2.07;;;;;;;15.82;32.31;100118.44;4989685;23;20229;-79
2021/10/25 12:25:23;;;;;;;3.83;2.00;;;;;;;15.78;32.46;100120.00;5005916;23;20228;-78
2021/10/25 12:28:19;;;;;;;4.50;2.67;;;;;;;15.82;32.83;100116.56;4991983;28;20240;-84
2021/10/25 12:31:19;;;;;;;3.50;2.43;;;;;;;15.78;32.77;100110.00;4977957;28;20302;-88
2021/10/25 12:33:50;;;;;;;4.07;2.53;;;;;;;15.88;32.31;100117.50;4985009;28;20279;-86
2021/10/25 12:36:40;;;;;;;3.97;2.33;;;;;;;15.77;32.81;100107.56;5085785;23;20224;-77
2021/10/25 12:39:32;;;;;;;3.53;2.20;;;;;;;15.76;32.59;100108.63;4979727;28;20230;-80
2021/10/25 12:41:59;;;;;;;6.30;2.77;;;;;;;15.80;32.41;100107.06;5002311;23;20221;-78
2021/10/25 12:45:31;;;;;;;3.00;2.20;;;;;;;15.72;32.37;100100.16;5012042;23;20259;-79
2021/10/25 12:49:14;;;;;;;4.20;2.20;;;;;;;15.60;33.42;100104.81;5030820;22;20218;-78
2021/10/25 12:52:24;;;;;;;2.40;2.10;;;;;;;15.65;33.14;100107.59;5002927;23;20225;-80
2021/10/25 12:54:57;;;;;;;3.10;2.13;;;;;;;15.60;33.31;100085.91;4994525;28;20219;-84
2021/10/25 12:57:31;;;;;;;5.43;1.97;;;;;;;15.60;33.28;100077.78;4986784;28;20240;-87
2021/10/25 13:00:50;;;;;;;4.50;2.13;;;;;;;15.54;33.24;100088.75;4981611;22;20231;-80
2021/10/25 13:04:17;;;;;;;3.03;2.00;;;;;;;15.55;32.73;100083.09;5021121;23;20228;-77
2021/10/25 13:07:21;;;;;;;4.73;2.23;;;;;;;15.55;33.33;100076.88;5004335;23;20243;-78
2021/10/25 13:10:52;;;;;;;3.53;2.20;;;;;;;15.64;33.22;100084.34;5003654;23;20212;-79
2021/10/25 13:13:39;;;;;;;3.30;1.83;;;;;;;15.65;33.15;100085.19;4978629;28;20224;-79
2021/10/25 13:16:45;;;;;;;3.13;1.97;;;;;;;15.42;33.83;100083.34;5008136;22;20237;-78
2021/10/25 13:20:08;;;;;;;3.87;2.10;;;;;;;15.48;33.90;100089.69;5011727;23;20223;-78
2021/10/25 13:22:57;;;;;;;5.27;2.30;;;;;;;15.46;33.85;100075.59;5010404;23;20223;-78
2021/10/25 13:25:51;;;;;;;3.47;2.17;;;;;;;15.30;33.87;100080.69;5012985;23;20234;-78
2021/10/25 13:29:31;;;;;;;3.77;2.10;;;;;;;15.31;34.49;100085.03;4988974;23;20213;-78
2021/10/25 13:32:45;;;;;;;3.97;1.90;;;;;;;15.42;34.65;100083.34;5008509;23;20250;-86
2021/10/25 13:35:20;;;;;;;2.90;2.03;;;;;;;15.30;34.38;100067.19;4980515;28;20259;-85
2021/10/25 13:38:09;;;;;;;5.73;2.27;;;;;;;15.38;34.20;100071.41;5002451;23;20232;-81
2021/10/25 13:41:17;;;;;;;3.90;2.10;;;;;;;15.26;34.01;100071.41;5009496;23;20255;-79
2021/10/25 13:44:34;;;;;;;5.13;2.10;;;;;;;15.18;34.35;100079.91;5004638;23;20232;-79
2021/10/25 13:48:01;;;;;;;4.70;2.40;;;;;;;15.07;34.20;100066.44;5004760;23;20236;-77
2021/10/25 13:54:41;;;;;;;3.70;2.50;;;;;;;14.97;34.70;100051.69;5012008;23;20276;-80
2021/10/25 13:57:49;;;;;;;5.30;1.90;;;;;;;14.91;35.00;100041.00;5021094;23;20299;-79
2021/10/25 14:01:02;;;;;;;5.13;2.30;;;;;;;14.92;35.19;100051.59;4987931;28;20221;-79
2021/10/25 14:03:39;;;;;;;5.73;2.23;;;;;;;14.85;35.44;100058.13;4996412;28;20260;-79
2021/10/25 14:06:48;;;;;;;4.87;2.17;;;;;;;14.83;35.51;100061.09;4934819;29;20249;-78
2021/10/25 14:09:30;;;;;;;4.93;2.60;;;;;;;14.68;35.35;100063.44;4976393;23;20237;-78
2021/10/25 14:19:47;;;;;;;5.37;4.33;;;;;;;14.33;36.34;100058.00;5001399;23;20226;-78
2021/10/25 14:22:35;;;;;;;7.93;6.30;;;;;;;14.36;36.27;100048.69;5004292;23;20224;-78
2021/10/25 14:25:58;;;;;;;3.30;2.57;;;;;;;14.23;36.47;100046.19;4985086;23;20224;-78
2021/10/25 14:29:20;;;;;;;4.77;2.00;;;;;;;14.15;36.53;100041.94;5154600;23;20235;-77
2021/10/25 14:32:38;;;;;;;4.13;2.40;;;;;;;14.10;36.98;100031.88;4999869;23;20218;-78
2021/10/25 14:35:42;;;;;;;6.87;2.70;;;;;;;13.97;37.19;100036.66;5016076;22;20207;-79
2021/10/25 14:45:43;;;;;;;5.40;2.30;;;;;;;13.63;37.94;100043.59;5080257;23;20282;-78
2021/10/25 14:55:22;;;;;;;31.07;28.27;;;;;;;13.29;38.63;100042.41;5002075;22;20223;-77
2021/10/25 14:58:56;;;;;;;8.37;5.73;;;;;;;13.12;39.20;100027.94;5000729;23;20232;-78
2021/10/25 15:01:47;;;;;;;5.83;3.00;;;;;;;13.04;39.16;100039.81;5015100;23;20227;-78
2021/10/25 15:08:38;;;;;;;4.07;2.00;;;;;;;12.69;39.97;100036.09;4979488;29;20232;-78
2021/10/25 15:11:53;;;;;;;4.17;2.20;;;;;;;12.50;40.47;100027.19;5003911;23;20230;-77
2021/10/25 15:14:50;;;;;;;4.27;2.57;;;;;;;12.39;40.67;100021.72;5005398;23;20243;-78
2021/10/25 15:18:27;;;;;;;4.93;3.57;;;;;;;12.37;40.54;100035.34;5084909;23;20222;-78
2021/10/25 15:21:51;;;;;;;7.23;5.40;;;;;;;12.21;41.20;100027.88;5007229;23;20277;-78
2021/10/25 15:25:12;;;;;;;6.17;5.30;;;;;;;11.97;41.45;100013.41;5037102;23;20235;-77
2021/10/25 15:27:56;;;;;;;7.87;5.47;;;;;;;11.88;42.17;100014.72;5014157;23;20223;-77
2021/10/25 15:30:55;;;;;;;4.27;2.63;;;;;;;11.71;41.86;100005.53;4986276;23;20263;-78
2021/10/25 15:34:04;;;;;;;3.90;2.60;;;;;;;11.61;42.19;100015.94;5007650;23;20242;-77
2021/10/25 15:36:54;;;;;;;4.83;2.60;;;;;;;11.56;42.47;100016.56;5000340;28;20200;-78
2021/10/25 15:40:37;;;;;;;4.73;2.73;;;;;;;11.48;42.78;100031.06;5007042;23;20226;-78
2021/10/25 15:43:30;;;;;;;4.33;2.50;;;;;;;11.36;43.33;100021.22;5091497;23;20216;-77
2021/10/25 15:46:40;;;;;;;5.27;2.90;;;;;;;11.23;43.36;100016.75;5205439;23;20245;-78
2021/10/25 15:49:55;;;;;;;5.90;2.67;;;;;;;11.07;43.86;100022.59;4993940;28;20188;-78
2021/10/25 15:53:07;;;;;;;4.97;2.70;;;;;;;11.14;43.39;100026.09;5011697;23;20220;-78
2021/10/25 15:55:47;;;;;;;2.63;2.17;;;;;;;11.01;43.67;100021.59;5006065;23;20299;-77
2021/10/25 15:58:58;;;;;;;4.50;2.97;;;;;;;10.89;44.38;100015.25;5089439;23;20256;-78
2021/10/25 16:01:40;;;;;;;6.07;2.27;;;;;;;10.76;44.42;100011.81;5022327;23;20293;-78
2021/10/25 16:04:50;;;;;;;3.63;2.47;;;;;;;10.59;44.67;99993.50;4967940;29;20266;-78
2021/10/25 16:07:25;;;;;;;5.87;3.83;;;;;;;10.72;44.83;100014.09;5031548;23;20239;-79
2021/10/25 16:10:29;;;;;;;6.33;2.97;;;;;;;10.74;44.75;100008.50;5096857;23;20258;-82
2021/10/25 16:13:39;;;;;;;4.50;3.20;;;;;;;10.71;44.81;100006.25;5006507;23;20290;-78
2021/10/25 16:16:44;;;;;;;7.73;4.50;;;;;;;10.66;44.93;100012.25;5034348;23;20219;-78
2021/10/25 16:19:51;;;;;;;6.60;3.40;;;;;;;10.59;45.18;100008.78;5013799;23;20238;-78
2021/10/25 16:22:52;;;;;;;4.00;3.03;;;;;;;10.70;45.10;100016.16;5013036;23;20244;-79
2021/10/25 16:25:54;;;;;;;3.33;2.30;;;;;;;10.63;45.04;100017.22;5020803;23;20295;-78
2021/10/25 16:28:25;;;;;;;5.10;2.30;;;;;;;10.63;44.75;99996.59;5011702;23;20242;-78
2021/10/25 16:31:17;;;;;;;5.93;2.80;;;;;;;10.64;44.36;100002.78;5012412;23;20272;-78
2021/10/25 16:33:57;;;;;;;8.47;2.77;;;;;;;10.56;44.22;99993.94;5090651;23;20573;-78
2021/10/25 16:40:44;;;;;;;3.67;2.20;;;;;;;10.72;44.18;99995.34;5087436;23;20207;-79
2021/10/25 16:44:08;;;;;;;3.37;2.70;;;;;;;10.69;44.34;100017.19;4975117;23;20224;-78
2021/10/25 16:49:41;;;;;;;2.60;2.27;;;;;;;10.68;44.24;100009.38;5230231;22;20555;-78